Time;durP1;ratioP1;P1;durP2;ratioP2;P2;SDS_P1;SDS_P2;PMS_P1;PMS_P2;Temp;Humidity;BMP_temperature;BMP_pressure;BME280_temperature;BME280_humidity;BME280_pressure;Samples;Min_cycle;Max_cycle;Signal;HPM_P1;HPM_P2
2022/08/19 00:00:18;;;;;;;0.40;0.40;;;;;;;18.31;72.71;101491.66;1950488;30;20763;-69
2022/08/19 00:01:22;;;;;;;0.30;0.30;;;;;;;18.29;72.46;101485.78;1956800;30;20060;-68
2022/08/19 00:02:31;;;;;;;0.30;0.30;;;;;;;18.23;72.72;101485.34;1956738;30;20064;-69
2022/08/19 00:03:34;;;;;;;0.30;0.30;;;;;;;18.21;72.72;101484.94;1956901;30;20065;-69
2022/08/19 00:04:38;;;;;;;0.40;0.40;;;;;;;18.21;72.72;101479.47;1957202;30;20524;-68
2022/08/19 00:05:42;;;;;;;0.38;0.38;;;;;;;18.19;72.86;101479.03;1949515;30;20517;-68
2022/08/19 00:06:45;;;;;;;0.40;0.40;;;;;;;18.22;72.84;101485.72;1956748;30;20139;-68
2022/08/19 00:07:49;;;;;;;0.30;0.30;;;;;;;18.25;72.72;101477.53;1956137;30;20131;-69
2022/08/19 00:08:51;;;;;;;0.35;0.35;;;;;;;18.22;72.63;101475.56;1955957;30;20087;-69
2022/08/19 00:09:54;;;;;;;0.40;0.40;;;;;;;18.25;72.90;101468.56;1950221;30;20207;-68
2022/08/19 00:10:58;;;;;;;0.30;0.30;;;;;;;18.25;72.87;101474.78;1949504;30;20064;-69
2022/08/19 00:12:01;;;;;;;0.22;0.22;;;;;;;18.28;72.37;101473.28;1958048;30;20052;-68
2022/08/19 00:13:04;;;;;;;0.30;0.30;;;;;;;18.24;72.62;101481.44;1956171;30;20159;-68
2022/08/19 00:14:09;;;;;;;0.40;0.40;;;;;;;18.28;72.22;101478.75;1955814;30;20127;-68
2022/08/19 00:15:13;;;;;;;0.30;0.30;;;;;;;18.27;72.30;101477.94;1957034;30;20210;-69
2022/08/19 00:16:20;;;;;;;0.35;0.35;;;;;;;18.25;72.86;101479.50;1963869;30;20114;-68
2022/08/19 00:17:27;;;;;;;0.30;0.30;;;;;;;18.23;72.87;101476.34;1962547;30;20503;-68
2022/08/19 00:18:29;;;;;;;0.40;0.40;;;;;;;18.22;72.80;101472.06;1961024;30;20638;-68
2022/08/19 00:19:32;;;;;;;0.30;0.30;;;;;;;18.25;72.83;101472.06;1957103;30;20117;-68
2022/08/19 00:20:40;;;;;;;0.30;0.30;;;;;;;18.29;72.30;101483.84;1955789;30;20084;-68
2022/08/19 00:21:43;;;;;;;0.30;0.30;;;;;;;18.27;72.46;101483.41;1959513;30;20143;-69
2022/08/19 00:22:47;;;;;;;0.30;0.30;;;;;;;18.27;72.73;101475.22;1956332;30;20057;-69
2022/08/19 00:23:49;;;;;;;0.30;0.30;;;;;;;18.27;72.60;101474.41;1953026;30;20153;-68
2022/08/19 00:24:51;;;;;;;0.30;0.30;;;;;;;18.26;72.58;101472.84;1953778;30;20131;-68
2022/08/19 00:25:55;;;;;;;0.40;0.40;;;;;;;18.30;72.44;101471.72;1950002;30;20060;-69
2022/08/19 00:26:59;;;;;;;0.40;0.40;;;;;;;18.27;72.44;101461.53;1956853;30;20049;-68
2022/08/19 00:28:22;;;;;;;0.30;0.30;;;;;;;18.25;72.01;101474.78;1954396;30;20405;-69
2022/08/19 00:29:25;;;;;;;0.30;0.30;;;;;;;18.24;72.62;101467.78;1957416;30;20060;-69
2022/08/19 00:30:28;;;;;;;0.30;0.30;;;;;;;18.21;72.79;101465.00;1957229;30;20493;-68
2022/08/19 00:31:30;;;;;;;0.30;0.30;;;;;;;18.22;72.91;101459.16;1948843;30;20068;-68
2022/08/19 00:32:34;;;;;;;0.38;0.38;;;;;;;18.20;72.86;101461.50;1949336;30;20513;-68
2022/08/19 00:33:36;;;;;;;0.30;0.30;;;;;;;18.21;72.85;101460.31;1953839;30;20064;-68
2022/08/19 00:34:39;;;;;;;0.40;0.40;;;;;;;18.22;72.56;101467.34;1954973;30;20095;-67
2022/08/19 00:35:43;;;;;;;0.40;0.40;;;;;;;18.23;72.78;101468.16;1950056;30;20062;-68
2022/08/19 00:36:46;;;;;;;0.40;0.40;;;;;;;18.23;72.41;101466.22;1956454;30;20084;-68
2022/08/19 00:37:49;;;;;;;0.40;0.40;;;;;;;18.15;73.03;101459.09;1956558;30;20064;-68
2022/08/19 00:38:53;;;;;;;0.30;0.30;;;;;;;18.18;72.76;101463.81;1959610;30;20056;-68
2022/08/19 00:39:55;;;;;;;0.30;0.30;;;;;;;18.15;72.89;101467.31;1960230;30;20056;-68
2022/08/19 00:40:58;;;;;;;0.40;0.40;;;;;;;18.13;73.06;101466.09;1956014;30;20131;-68
2022/08/19 00:42:00;;;;;;;0.35;0.35;;;;;;;18.11;73.50;101458.28;1957452;30;20088;-68
2022/08/19 00:43:09;;;;;;;0.38;0.38;;;;;;;18.10;73.31;101451.25;1953933;30;20068;-68
2022/08/19 00:44:14;;;;;;;0.30;0.30;;;;;;;18.10;73.41;101453.97;1961724;30;20511;-68
2022/08/19 00:45:20;;;;;;;0.40;0.40;;;;;;;18.13;72.98;101445.03;1962008;30;20067;-69
2022/08/19 00:46:22;;;;;;;0.30;0.30;;;;;;;18.12;73.33;101448.94;1957103;30;20069;-69
2022/08/19 00:47:25;;;;;;;0.35;0.35;;;;;;;18.15;72.78;101448.16;1951711;30;20061;-69
2022/08/19 00:48:28;;;;;;;0.30;0.30;;;;;;;18.14;73.32;101456.75;1950054;30;20057;-68
2022/08/19 00:49:35;;;;;;;0.30;0.30;;;;;;;18.15;73.29;101453.63;1953710;30;21085;-68
2022/08/19 00:50:40;;;;;;;0.30;0.30;;;;;;;18.15;72.92;101448.16;1956915;30;20080;-68
2022/08/19 00:52:01;;;;;;;0.30;0.30;;;;;;;18.11;73.23;101449.31;1956940;30;20057;-68
2022/08/19 00:53:03;;;;;;;0.40;0.40;;;;;;;18.08;73.27;101448.09;1956418;30;20569;-68
2022/08/19 00:54:06;;;;;;;0.40;0.40;;;;;;;18.10;73.35;101445.78;1957080;30;20509;-68
2022/08/19 00:55:11;;;;;;;0.30;0.30;;;;;;;18.11;72.90;101444.59;1955930;30;20548;-68
2022/08/19 00:56:15;;;;;;;0.40;0.40;;;;;;;18.08;73.49;101439.91;1951054;30;20068;-68
2022/08/19 00:57:22;;;;;;;0.40;0.40;;;;;;;18.08;73.29;101439.09;1956332;30;20123;-68
2022/08/19 00:58:29;;;;;;;0.40;0.40;;;;;;;18.05;73.44;101432.44;1950229;30;20065;-68
2022/08/19 00:59:35;;;;;;;0.30;0.30;;;;;;;18.04;73.40;101439.09;1957000;30;20655;-68
2022/08/19 01:00:58;;;;;;;0.45;0.45;;;;;;;17.96;73.73;101434.72;1946863;30;20506;-68
2022/08/19 01:02:00;;;;;;;0.30;0.30;;;;;;;17.96;73.92;101437.44;1949015;30;20088;-69
2022/08/19 01:03:04;;;;;;;0.40;0.40;;;;;;;17.92;73.75;101431.16;1957099;30;20065;-69
2022/08/19 01:04:06;;;;;;;0.40;0.40;;;;;;;17.90;73.84;101441.69;1956583;30;20127;-68
2022/08/19 01:05:12;;;;;;;0.30;0.30;;;;;;;17.89;73.95;101434.63;1957220;30;20088;-68
2022/08/19 01:06:14;;;;;;;0.35;0.35;;;;;;;17.86;74.36;101433.44;1957038;30;20060;-68
2022/08/19 01:07:24;;;;;;;0.32;0.32;;;;;;;17.87;74.00;101434.22;1956936;30;20514;-68
2022/08/19 01:08:26;;;;;;;0.40;0.40;;;;;;;17.86;nan;101436.19;1953542;30;20132;-69
2022/08/19 01:09:30;;;;;;;0.40;0.40;;;;;;;17.84;74.27;101437.69;1956810;30;20060;-69
2022/08/19 01:10:36;;;;;;;0.40;0.40;;;;;;;17.84;73.96;101429.50;1953560;30;20083;-69
2022/08/19 01:11:43;;;;;;;0.40;0.40;;;;;;;17.81;74.20;101432.97;1956989;30;20059;-68
2022/08/19 01:12:46;;;;;;;0.40;0.40;;;;;;;17.72;74.97;101427.03;1949987;30;20529;-69
2022/08/19 01:13:51;;;;;;;0.40;0.40;;;;;;;17.71;74.92;101433.69;1949752;30;20172;-69
2022/08/19 01:14:54;;;;;;;0.40;0.40;;;;;;;17.72;74.96;101424.31;1947707;30;20150;-69
2022/08/19 01:16:01;;;;;;;0.40;0.40;;;;;;;17.73;74.85;101425.88;1941822;30;20566;-68
2022/08/19 01:17:04;;;;;;;0.40;0.40;;;;;;;17.73;75.08;101425.88;1949358;30;20061;-69
2022/08/19 01:18:10;;;;;;;0.40;0.40;;;;;;;17.76;74.83;101425.13;1956276;30;20084;-68
2022/08/19 01:19:18;;;;;;;0.38;0.38;;;;;;;17.78;74.58;101433.72;1948676;30;20508;-68
2022/08/19 01:20:23;;;;;;;0.40;0.40;;;;;;;17.75;74.65;101423.56;1950119;30;20092;-69
2022/08/19 01:21:31;;;;;;;0.35;0.35;;;;;;;17.69;74.99;101428.59;1955406;30;20646;-69
2022/08/19 01:22:41;;;;;;;0.40;0.40;;;;;;;17.65;75.13;101418.75;1955203;30;20151;-68
2022/08/19 01:23:45;;;;;;;0.30;0.30;;;;;;;17.61;75.58;101426.94;1956940;30;20155;-69
2022/08/19 01:24:47;;;;;;;0.30;0.30;;;;;;;17.61;75.60;101429.66;1956792;30;20132;-68
2022/08/19 01:25:54;;;;;;;0.40;0.40;;;;;;;17.63;75.17;101421.09;1961485;30;20072;-68
2022/08/19 01:26:57;;;;;;;0.30;0.30;;;;;;;17.61;75.66;101424.22;1960364;30;20097;-69
2022/08/19 01:28:00;;;;;;;0.40;0.40;;;;;;;17.62;75.47;101424.97;1955237;30;20478;-68
2022/08/19 01:29:12;;;;;;;0.30;0.30;;;;;;;17.60;75.52;101433.53;1961676;30;20052;-68
2022/08/19 01:30:22;;;;;;;0.40;0.40;;;;;;;17.62;75.43;101425.75;1962859;30;20070;-69
2022/08/19 01:31:30;;;;;;;0.40;0.40;;;;;;;17.62;75.15;101424.97;1956823;30;20064;-68
2022/08/19 01:32:34;;;;;;;0.30;0.30;;;;;;;17.61;75.53;101428.88;1956828;30;20131;-69
2022/08/19 01:33:37;;;;;;;0.40;0.40;;;;;;;17.64;75.60;101433.59;1956585;30;20064;-69
2022/08/19 01:34:39;;;;;;;0.30;0.30;;;;;;;17.65;75.54;101432.41;1956973;30;20136;-69
2022/08/19 01:35:43;;;;;;;0.30;0.30;;;;;;;17.68;75.29;101439.84;1956230;30;20476;-67
2022/08/19 01:36:47;;;;;;;0.30;0.30;;;;;;;17.70;75.45;101437.53;1956256;30;20060;-68
2022/08/19 01:37:54;;;;;;;0.30;0.30;;;;;;;17.72;74.92;101440.69;1956623;30;20061;-69
2022/08/19 01:38:57;;;;;;;0.40;0.40;;;;;;;17.73;74.79;101436.78;1955874;30;20084;-68
2022/08/19 01:40:00;;;;;;;0.32;0.32;;;;;;;17.69;75.29;101433.25;1956180;30;20131;-68
2022/08/19 01:41:07;;;;;;;0.40;0.40;;;;;;;17.65;75.22;101441.41;1956495;30;20056;-68
2022/08/19 01:42:12;;;;;;;0.50;0.50;;;;;;;17.62;75.23;101438.63;1956581;30;20080;-68
2022/08/19 01:43:15;;;;;;;0.40;0.40;;;;;;;17.61;75.24;101440.59;1955962;30;20143;-68
2022/08/19 01:44:20;;;;;;;0.40;0.40;;;;;;;17.59;75.41;101437.44;1956340;30;20087;-68
2022/08/19 01:45:24;;;;;;;0.40;0.40;;;;;;;17.60;74.95;101440.97;1953770;30;20125;-68
2022/08/19 01:46:28;;;;;;;0.38;0.38;;;;;;;17.58;75.32;101446.00;1955945;30;20060;-69
2022/08/19 01:47:30;;;;;;;0.40;0.40;;;;;;;17.59;75.13;101447.56;1949930;30;20095;-68
2022/08/19 01:48:38;;;;;;;0.40;0.40;;;;;;;17.61;74.81;101445.25;1953417;30;20525;-68
2022/08/19 01:49:41;;;;;;;0.40;0.40;;;;;;;17.59;75.17;101444.84;1950075;30;20124;-68
2022/08/19 01:50:43;;;;;;;0.40;0.40;;;;;;;17.59;74.79;101431.97;1956367;30;20217;-67
2022/08/19 01:51:46;;;;;;;0.30;0.30;;;;;;;17.57;74.78;101439.75;1954781;30;20433;-68
2022/08/19 01:52:50;;;;;;;0.40;0.40;;;;;;;17.55;74.91;101435.84;1957467;30;20060;-69
2022/08/19 01:54:09;;;;;;;0.40;0.40;;;;;;;17.45;74.99;101447.41;1957446;30;20069;-68
2022/08/19 01:55:14;;;;;;;0.40;0.40;;;;;;;17.43;75.44;101439.56;1955864;30;20068;-68
2022/08/19 01:56:17;;;;;;;0.45;0.45;;;;;;;17.43;75.33;101434.09;1956432;30;20064;-68
2022/08/19 01:57:19;;;;;;;0.40;0.40;;;;;;;17.42;75.49;101427.06;1935966;30;20117;-68
2022/08/19 01:58:29;;;;;;;0.40;0.40;;;;;;;17.43;75.64;101430.56;1933847;30;20512;-68
2022/08/19 01:59:32;;;;;;;0.40;0.40;;;;;;;17.38;75.84;101430.91;1950308;30;20546;-67
2022/08/19 02:00:35;;;;;;;0.40;0.40;;;;;;;17.38;76.03;101428.97;1951031;30;20061;-68
2022/08/19 02:01:37;;;;;;;0.40;0.40;;;;;;;17.38;75.81;101436.34;1953946;30;20114;-68
2022/08/19 02:02:40;;;;;;;0.30;0.30;;;;;;;17.35;76.44;101420.72;1949715;30;20106;-68
2022/08/19 02:03:45;;;;;;;0.50;0.50;;;;;;;17.36;76.26;101434.00;1943674;30;20510;-69
2022/08/19 02:04:49;;;;;;;0.50;0.50;;;;;;;17.34;76.34;101427.34;1953582;30;20543;-68
2022/08/19 02:05:54;;;;;;;0.43;0.43;;;;;;;17.36;76.08;101430.50;1956877;30;20127;-69
2022/08/19 02:06:58;;;;;;;0.40;0.40;;;;;;;17.33;76.31;101429.28;1958010;30;20561;-69
2022/08/19 02:08:02;;;;;;;0.40;0.40;;;;;;;17.33;76.17;101431.25;1955808;30;20056;-69
2022/08/19 02:09:09;;;;;;;0.50;0.50;;;;;;;17.30;76.46;101434.72;1956483;30;20072;-69
2022/08/19 02:10:14;;;;;;;0.50;0.50;;;;;;;17.30;76.44;101434.72;1957973;30;20157;-69
2022/08/19 02:11:21;;;;;;;0.40;0.40;;;;;;;17.29;76.39;101433.94;1957779;30;20436;-69
2022/08/19 02:12:23;;;;;;;0.47;0.47;;;;;;;17.29;76.53;101433.94;1955637;30;20067;-69
2022/08/19 02:13:26;;;;;;;0.40;0.40;;;;;;;17.30;76.43;101435.47;1950812;30;20152;-69
2022/08/19 02:14:28;;;;;;;0.40;0.40;;;;;;;17.29;76.30;101425.75;1953659;30;20109;-69
2022/08/19 02:15:31;;;;;;;0.30;0.30;;;;;;;17.32;76.40;101432.38;1957969;30;20527;-68
2022/08/19 02:16:34;;;;;;;0.50;0.50;;;;;;;17.32;76.33;101427.72;1958117;30;20088;-68
2022/08/19 02:17:37;;;;;;;0.40;0.40;;;;;;;17.33;76.08;101423.06;1956041;30;20531;-69
2022/08/19 02:18:39;;;;;;;0.40;0.40;;;;;;;17.32;76.13;101430.44;1965413;30;20147;-69
2022/08/19 02:19:42;;;;;;;0.40;0.40;;;;;;;17.33;76.07;101431.25;1959139;30;20532;-69
2022/08/19 02:20:46;;;;;;;0.43;0.43;;;;;;;17.35;76.17;101426.97;1957446;30;20068;-69
2022/08/19 02:21:49;;;;;;;0.40;0.40;;;;;;;17.36;75.68;101438.69;1950666;30;20122;-68
2022/08/19 02:22:52;;;;;;;0.40;0.40;;;;;;;17.33;75.82;101434.75;1953123;30;20516;-69
2022/08/19 02:23:57;;;;;;;0.40;0.40;;;;;;;17.36;75.79;101435.97;1952294;30;20091;-69
2022/08/19 02:24:59;;;;;;;0.30;0.30;;;;;;;17.27;76.38;101429.97;1951538;30;20065;-69
2022/08/19 02:26:02;;;;;;;0.40;0.40;;;;;;;17.27;76.23;101440.88;1947600;30;20064;-69
2022/08/19 02:27:05;;;;;;;0.38;0.38;;;;;;;17.26;76.36;101436.59;1950268;30;20067;-69
2022/08/19 02:28:09;;;;;;;0.40;0.40;;;;;;;17.22;76.35;101430.31;1951969;30;20096;-69
2022/08/19 02:29:11;;;;;;;0.40;0.40;;;;;;;17.20;76.45;101432.63;1953038;30;20163;-68
2022/08/19 02:30:17;;;;;;;0.40;0.40;;;;;;;17.11;77.03;101424.72;1953229;30;20136;-69
2022/08/19 02:31:21;;;;;;;0.40;0.40;;;;;;;17.04;77.21;101427.38;1949843;30;20053;-68
2022/08/19 02:32:27;;;;;;;0.40;0.40;;;;;;;17.01;77.55;101427.31;1950699;30;20064;-69
2022/08/19 02:33:29;;;;;;;0.40;0.40;;;;;;;16.99;77.50;101429.63;1957808;30;20087;-68
2022/08/19 02:34:32;;;;;;;0.40;0.40;;;;;;;16.97;77.65;101426.47;1957721;30;20095;-68
2022/08/19 02:35:34;;;;;;;0.40;0.40;;;;;;;16.94;77.87;101416.28;1956090;30;20049;-69
2022/08/19 02:36:37;;;;;;;0.40;0.40;;;;;;;16.93;77.97;101436.53;1950801;30;20120;-69
2022/08/19 02:39:06;;;;;;;0.40;0.40;;;;;;;16.82;78.16;101443.78;1955896;30;20127;-69
2022/08/19 02:40:08;;;;;;;0.40;0.40;;;;;;;16.76;78.65;101437.09;1957737;30;20064;-69
2022/08/19 02:41:21;;;;;;;0.40;0.40;;;;;;;16.67;78.85;101439.25;1942750;30;20073;-68
2022/08/19 02:42:27;;;;;;;0.50;0.50;;;;;;;16.66;78.89;101438.50;1940885;30;20061;-69
2022/08/19 02:43:36;;;;;;;0.40;0.40;;;;;;;16.64;78.80;101440.78;1945887;30;20118;-68
2022/08/19 02:44:39;;;;;;;0.40;0.40;;;;;;;16.62;79.22;101442.31;1950933;30;20053;-68
2022/08/19 02:45:42;;;;;;;0.40;0.40;;;;;;;16.63;79.70;101446.63;1960364;30;20061;-68
2022/08/19 02:46:47;;;;;;;0.40;0.40;;;;;;;16.64;79.48;101450.91;1952542;30;20139;-69
2022/08/19 02:47:49;;;;;;;0.50;0.50;;;;;;;16.63;79.45;101438.44;1942707;30;20089;-69
2022/08/19 02:48:53;;;;;;;0.40;0.40;;;;;;;16.60;79.72;101439.19;1940168;30;20501;-69
2022/08/19 02:49:55;;;;;;;0.40;0.40;;;;;;;16.61;79.64;101451.63;1942740;30;20605;-70
2022/08/19 02:50:59;;;;;;;0.50;0.50;;;;;;;16.61;79.29;101449.72;1950192;30;20096;-68
2022/08/19 02:52:01;;;;;;;0.40;0.40;;;;;;;16.60;79.83;101444.63;1957429;30;20063;-68
2022/08/19 02:53:05;;;;;;;0.50;0.50;;;;;;;16.59;79.71;101459.38;1957579;30;20060;-69
2022/08/19 02:54:11;;;;;;;0.40;0.40;;;;;;;16.55;80.17;101444.94;1957889;30;20072;-68
2022/08/19 02:55:14;;;;;;;0.40;0.40;;;;;;;16.49;80.14;101446.41;1957682;30;20064;-68
2022/08/19 02:56:17;;;;;;;0.40;0.40;;;;;;;16.49;79.96;101443.69;1957642;30;20537;-69
2022/08/19 02:57:20;;;;;;;0.40;0.40;;;;;;;16.44;80.61;101448.25;1957865;30;20111;-69
2022/08/19 02:58:23;;;;;;;0.40;0.40;;;;;;;16.42;80.87;101450.56;1951000;30;20060;-69
2022/08/19 02:59:30;;;;;;;0.40;0.40;;;;;;;16.44;80.84;101451.00;1957526;30;20147;-68
2022/08/19 03:00:32;;;;;;;0.40;0.40;;;;;;;16.44;80.59;101451.00;1963684;30;20134;-68
2022/08/19 03:01:36;;;;;;;0.30;0.30;;;;;;;16.46;80.15;101453.34;1963128;30;20067;-67
2022/08/19 03:02:39;;;;;;;0.40;0.40;;;;;;;16.45;80.60;101459.97;1964371;30;20067;-68
2022/08/19 03:03:41;;;;;;;0.40;0.40;;;;;;;16.47;80.34;101459.59;1957240;30;20064;-69
2022/08/19 03:04:43;;;;;;;0.40;0.40;;;;;;;16.44;80.47;101458.38;1956618;30;20095;-69
2022/08/19 03:05:47;;;;;;;0.30;0.30;;;;;;;16.41;80.57;101453.66;1957689;30;20148;-69
2022/08/19 03:06:57;;;;;;;0.40;0.40;;;;;;;16.34;80.74;101454.31;1956478;30;20056;-69
2022/08/19 03:08:13;;;;;;;0.40;0.40;;;;;;;16.30;80.89;101452.66;1956432;30;20080;-70
2022/08/19 03:09:19;;;;;;;0.50;0.50;;;;;;;16.29;80.74;101451.88;1956367;30;20065;-68
2022/08/19 03:10:22;;;;;;;0.40;0.40;;;;;;;16.25;81.00;101448.31;1957472;30;20159;-69
2022/08/19 03:11:27;;;;;;;0.30;0.30;;;;;;;16.23;81.09;101447.91;1955718;30;20072;-69
2022/08/19 03:12:29;;;;;;;0.40;0.40;;;;;;;16.17;81.42;101443.13;1956610;30;20140;-68
2022/08/19 03:13:33;;;;;;;0.43;0.43;;;;;;;16.10;81.86;101443.78;1956770;30;20084;-67
2022/08/19 03:14:36;;;;;;;0.40;0.40;;;;;;;16.09;81.58;101444.91;1955551;30;20088;-68
2022/08/19 03:15:43;;;;;;;0.40;0.40;;;;;;;16.08;81.81;101440.63;1957059;30;20190;-68
2022/08/19 03:16:47;;;;;;;0.40;0.40;;;;;;;16.05;81.76;101435.91;1957217;30;20148;-68
2022/08/19 03:17:50;;;;;;;0.30;0.30;;;;;;;16.02;82.21;101441.28;1959131;30;20063;-68
2022/08/19 03:18:54;;;;;;;0.40;0.40;;;;;;;16.02;81.97;101436.63;1971621;30;20401;-69
2022/08/19 03:19:56;;;;;;;0.40;0.40;;;;;;;16.02;81.99;101442.06;1957812;30;20146;-69
2022/08/19 03:21:00;;;;;;;0.40;0.40;;;;;;;16.00;82.30;101436.19;1948137;30;20137;-68
2022/08/19 03:22:03;;;;;;;0.40;0.40;;;;;;;16.02;82.32;101436.63;1950349;30;20140;-68
2022/08/19 03:23:06;;;;;;;0.50;0.50;;;;;;;16.03;81.90;101437.41;1955284;30;20091;-68
2022/08/19 03:24:09;;;;;;;0.50;0.50;;;;;;;16.03;81.65;101438.19;1949369;30;20541;-69
2022/08/19 03:25:13;;;;;;;0.40;0.40;;;;;;;16.04;81.76;101439.78;1949335;30;20092;-68
2022/08/19 03:26:16;;;;;;;0.40;0.40;;;;;;;16.02;81.90;101442.06;1957146;30;20092;-69
2022/08/19 03:27:19;;;;;;;0.40;0.40;;;;;;;16.03;81.79;101440.16;1957129;30;20056;-69
2022/08/19 03:28:21;;;;;;;0.40;0.40;;;;;;;16.03;81.93;101443.63;1949754;30;20151;-69
2022/08/19 03:29:25;;;;;;;0.40;0.40;;;;;;;16.00;81.96;101436.19;1949367;30;20569;-69
2022/08/19 03:30:32;;;;;;;0.40;0.40;;;;;;;15.96;82.14;101437.28;1950131;30;20521;-69
2022/08/19 03:31:35;;;;;;;0.40;0.40;;;;;;;15.97;82.11;101439.66;1957582;30;20521;-67
2022/08/19 03:32:47;;;;;;;0.40;0.40;;;;;;;15.93;82.25;101440.72;1957070;30;20068;-68
2022/08/19 03:33:55;;;;;;;0.40;0.40;;;;;;;15.89;82.54;101428.97;1957196;30;20060;-68
2022/08/19 03:34:57;;;;;;;0.40;0.40;;;;;;;15.86;82.89;101433.22;1956890;30;20087;-69
2022/08/19 03:36:03;;;;;;;0.35;0.35;;;;;;;15.88;82.51;101428.19;1956941;30;20215;-69
2022/08/19 03:37:07;;;;;;;0.40;0.40;;;;;;;15.88;82.49;101422.75;1957035;30;20064;-69
2022/08/19 03:38:09;;;;;;;0.50;0.50;;;;;;;15.91;82.34;101422.03;1956663;30;20143;-69
2022/08/19 03:39:12;;;;;;;0.40;0.40;;;;;;;15.93;82.62;101421.66;1956188;30;20082;-68
2022/08/19 03:40:15;;;;;;;0.40;0.40;;;;;;;15.97;82.31;101420.56;1956211;30;20151;-69
2022/08/19 03:41:20;;;;;;;0.43;0.43;;;;;;;15.99;82.47;101421.00;1957521;30;20114;-68
2022/08/19 03:42:22;;;;;;;0.40;0.40;;;;;;;15.97;82.35;101431.47;1957037;30;20139;-68
2022/08/19 03:43:49;;;;;;;0.40;0.40;;;;;;;15.94;82.52;101426.75;1956159;30;20080;-68
2022/08/19 03:44:52;;;;;;;0.50;0.50;;;;;;;15.93;82.42;101427.91;1957569;30;20136;-69
2022/08/19 03:46:03;;;;;;;0.40;0.40;;;;;;;15.93;82.23;101438.81;1956299;30;20084;-68
2022/08/19 03:47:06;;;;;;;0.40;0.40;;;;;;;15.91;82.15;101432.91;1945755;30;20104;-69
2022/08/19 03:48:09;;;;;;;0.40;0.40;;;;;;;15.90;82.26;101434.06;1949622;30;20195;-69
2022/08/19 03:49:11;;;;;;;0.43;0.43;;;;;;;15.88;82.59;101430.13;1950150;30;20454;-69
2022/08/19 03:50:16;;;;;;;0.50;0.50;;;;;;;15.89;82.57;101426.25;1952481;30;20098;-70
2022/08/19 03:51:21;;;;;;;0.40;0.40;;;;;;;15.87;82.46;101429.34;1963965;30;20448;-68
2022/08/19 03:52:32;;;;;;;0.40;0.40;;;;;;;15.88;82.32;101430.13;1954370;30;20071;-69
2022/08/19 03:53:35;;;;;;;0.40;0.40;;;;;;;15.87;82.43;101434.78;1955713;30;20135;-68
2022/08/19 03:54:38;;;;;;;0.40;0.40;;;;;;;15.84;82.37;101432.78;1957463;30;20056;-68
2022/08/19 03:55:41;;;;;;;0.50;0.50;;;;;;;15.81;82.61;101444.41;1957456;30;20068;-68
2022/08/19 03:56:46;;;;;;;0.40;0.40;;;;;;;15.77;82.70;101440.84;1941894;30;20054;-69
2022/08/19 03:57:48;;;;;;;0.45;0.45;;;;;;;15.75;82.84;101440.41;1942986;30;20065;-68
2022/08/19 03:58:52;;;;;;;0.45;0.45;;;;;;;15.75;82.50;101443.13;1949963;30;20076;-68
2022/08/19 03:59:54;;;;;;;0.40;0.40;;;;;;;15.71;82.64;101447.72;1950024;30;20064;-68
2022/08/19 04:01:17;;;;;;;0.40;0.40;;;;;;;15.66;82.93;101444.50;1943352;30;20077;-68
2022/08/19 04:02:19;;;;;;;0.40;0.40;;;;;;;15.63;83.17;101437.84;1949823;30;20064;-69
2022/08/19 04:03:22;;;;;;;0.30;0.30;;;;;;;15.59;83.47;101434.25;1961172;30;20491;-69
2022/08/19 04:04:25;;;;;;;0.40;0.40;;;;;;;15.59;83.32;101439.69;1963174;30;20085;-70
2022/08/19 04:05:31;;;;;;;0.40;0.40;;;;;;;15.57;83.32;101441.97;1957584;30;20071;-67
2022/08/19 04:06:36;;;;;;;0.40;0.40;;;;;;;15.57;83.53;101428.38;1963262;30;20091;-68
2022/08/19 04:07:41;;;;;;;0.40;0.40;;;;;;;15.54;83.62;101429.09;1962785;30;20067;-68
2022/08/19 04:08:45;;;;;;;0.47;0.47;;;;;;;15.54;83.51;101431.81;1957562;30;20505;-68
2022/08/19 04:09:50;;;;;;;0.40;0.40;;;;;;;15.55;83.58;101438.06;1956941;30;20520;-69
2022/08/19 04:10:53;;;;;;;0.40;0.40;;;;;;;15.52;83.84;101436.84;1956699;30;20552;-68
2022/08/19 04:11:59;;;;;;;0.40;0.40;;;;;;;15.53;83.62;101430.25;1956738;30;20139;-69
2022/08/19 04:13:01;;;;;;;0.40;0.40;;;;;;;15.53;83.99;101434.91;1956751;30;20056;-69
2022/08/19 04:14:04;;;;;;;0.40;0.40;;;;;;;15.54;83.65;101434.53;1948814;30;20126;-69
2022/08/19 04:15:08;;;;;;;0.50;0.50;;;;;;;15.57;83.35;101433.03;1949422;30;20092;-69
2022/08/19 04:16:10;;;;;;;0.50;0.50;;;;;;;15.57;83.59;101433.03;1956294;30;20127;-69
2022/08/19 04:17:13;;;;;;;0.60;0.60;;;;;;;15.57;83.62;101436.53;1957181;30;20106;-67
2022/08/19 04:18:15;;;;;;;0.50;0.50;;;;;;;15.57;83.58;101441.22;1962113;30;20532;-68
2022/08/19 04:19:19;;;;;;;0.50;0.50;;;;;;;15.58;83.52;101440.84;1958677;30;20581;-68
2022/08/19 04:20:21;;;;;;;0.60;0.60;;;;;;;15.56;83.27;101429.53;1956823;30;20068;-69
2022/08/19 04:21:26;;;;;;;0.55;0.55;;;;;;;15.57;83.34;101439.25;1954562;30;20516;-68
2022/08/19 04:22:28;;;;;;;0.60;0.60;;;;;;;15.55;83.79;101433.41;1941733;30;20069;-69
2022/08/19 04:23:31;;;;;;;0.60;0.60;;;;;;;15.56;83.63;101424.09;1942321;30;20140;-68
2022/08/19 04:24:35;;;;;;;0.50;0.50;;;;;;;15.58;83.62;101432.69;1953735;30;20553;-69
2022/08/19 04:25:39;;;;;;;0.55;0.55;;;;;;;15.58;83.78;101424.53;1956930;30;20084;-69
2022/08/19 04:26:43;;;;;;;0.55;0.55;;;;;;;15.58;83.47;101423.72;1957355;30;20553;-68
2022/08/19 04:27:46;;;;;;;0.60;0.60;;;;;;;15.56;83.56;101429.53;1954905;30;20530;-69
2022/08/19 04:28:50;;;;;;;0.50;0.50;;;;;;;15.54;83.79;101426.38;1954868;30;20068;-69
2022/08/19 04:29:54;;;;;;;0.50;0.50;;;;;;;15.53;83.36;101434.91;1956831;30;20532;-68
2022/08/19 04:30:57;;;;;;;0.50;0.50;;;;;;;15.50;83.92;101428.25;1946869;30;20136;-69
2022/08/19 04:32:00;;;;;;;0.60;0.60;;;;;;;15.50;84.10;101427.44;1949253;30;20103;-69
2022/08/19 04:33:11;;;;;;;0.60;0.60;;;;;;;15.46;84.10;101421.94;1956668;30;20091;-69
2022/08/19 04:34:17;;;;;;;0.50;0.50;;;;;;;15.48;84.21;101429.75;1954828;30;20630;-69
2022/08/19 04:35:19;;;;;;;0.60;0.60;;;;;;;15.49;84.20;101428.59;1956877;30;20116;-69
2022/08/19 04:36:33;;;;;;;0.60;0.60;;;;;;;15.51;83.86;101429.81;1956624;30;20064;-69
2022/08/19 04:37:35;;;;;;;0.60;0.60;;;;;;;15.52;83.88;101434.13;1955189;30;20496;-69
2022/08/19 04:38:38;;;;;;;0.50;0.50;;;;;;;15.56;83.74;101439.63;1954842;30;20129;-68
2022/08/19 04:42:41;;;;;;;0.52;0.52;;;;;;;15.54;84.03;101423.66;1955156;30;20061;-69
2022/08/19 04:43:48;;;;;;;0.60;0.60;;;;;;;15.55;83.59;101429.88;1954741;30;20095;-69
2022/08/19 04:44:50;;;;;;;0.60;0.60;;;;;;;15.56;83.63;101429.53;1954900;30;20084;-69
2022/08/19 04:45:53;;;;;;;0.60;0.60;;;;;;;15.61;83.43;101426.53;1956700;30;20143;-69
2022/08/19 04:46:58;;;;;;;0.60;0.60;;;;;;;15.63;83.58;101423.44;1952951;30;20069;-69
2022/08/19 04:48:01;;;;;;;0.70;0.70;;;;;;;15.68;83.23;101420.44;1953600;30;20065;-69
2022/08/19 04:49:25;;;;;;;0.63;0.63;;;;;;;15.69;83.34;101424.72;1956756;30;20088;-69
2022/08/19 04:50:27;;;;;;;0.65;0.65;;;;;;;15.73;83.15;101423.63;1952433;30;20417;-69
2022/08/19 04:51:30;;;;;;;0.60;0.60;;;;;;;15.77;83.01;101423.69;1950001;30;20069;-69
2022/08/19 04:52:32;;;;;;;0.60;0.60;;;;;;;15.76;83.12;101422.91;1957238;30;20056;-69
2022/08/19 04:53:37;;;;;;;0.60;0.60;;;;;;;15.77;82.82;101424.50;1956573;30;20092;-68
2022/08/19 04:54:39;;;;;;;0.60;0.60;;;;;;;15.77;82.75;101421.78;1956838;30;20105;-68
2022/08/19 04:55:43;;;;;;;0.55;0.55;;;;;;;15.79;83.14;101426.84;1949981;30;20087;-69
2022/08/19 04:56:45;;;;;;;0.60;0.60;;;;;;;15.79;83.05;101424.91;1953111;30;20087;-68
2022/08/19 04:57:50;;;;;;;0.55;0.55;;;;;;;15.81;83.23;101421.84;1956613;30;20091;-68
2022/08/19 04:58:53;;;;;;;0.50;0.50;;;;;;;15.78;83.33;101409.72;1956761;30;20555;-68
2022/08/19 04:59:57;;;;;;;0.50;0.50;;;;;;;15.79;83.27;101416.72;1948726;30;20061;-68
2022/08/19 05:00:59;;;;;;;0.60;0.60;;;;;;;15.79;83.42;101415.97;1956551;30;20159;-69
2022/08/19 05:02:03;;;;;;;0.60;0.60;;;;;;;15.78;83.43;101414.38;1956605;30;20061;-69
2022/08/19 05:03:06;;;;;;;0.50;0.50;;;;;;;15.75;83.72;101418.63;1956521;30;20135;-69
2022/08/19 05:04:09;;;;;;;0.60;0.60;;;;;;;15.76;83.69;101417.47;1956483;30;20137;-68